Time;durP1;ratioP1;P1;durP2;ratioP2;P2;SDS_P1;SDS_P2;PMS_P1;PMS_P2;Temp;Humidity;BMP_temperature;BMP_pressure;BME280_temperature;BME280_humidity;BME280_pressure;Samples;Min_cycle;Max_cycle;Signal;HPM_P1;HPM_P2
2023/08/20 00:01:40;;;;;;;7.35;2.20;;;17.30;99.90;;;;;;5046100;28;20048;-69
2023/08/20 00:04:07;;;;;;;7.85;2.38;;;17.30;99.90;;;;;;5029023;28;20183;-70
2023/08/20 00:06:33;;;;;;;9.10;2.40;;;17.20;99.90;;;;;;5046967;28;20519;-70
2023/08/20 00:08:59;;;;;;;10.07;2.92;;;17.20;99.90;;;;;;5044660;28;20103;-70
2023/08/20 00:11:25;;;;;;;12.05;2.55;;;17.20;99.90;;;;;;5046488;28;20105;-70
2023/08/20 00:13:51;;;;;;;8.40;2.25;;;17.20;99.90;;;;;;5044897;28;20107;-69
2023/08/20 00:16:17;;;;;;;8.93;2.95;;;17.10;99.90;;;;;;5044502;28;20703;-69
2023/08/20 00:18:43;;;;;;;11.93;2.63;;;17.00;99.90;;;;;;5075435;28;20128;-69
2023/08/20 00:21:09;;;;;;;9.43;3.20;;;17.00;99.90;;;;;;5046041;28;20521;-69
2023/08/20 00:23:36;;;;;;;10.52;2.47;;;17.00;99.90;;;;;;5045711;28;20159;-69
2023/08/20 00:26:02;;;;;;;10.18;3.25;;;17.00;99.90;;;;;;5045536;28;20124;-70
2023/08/20 00:28:28;;;;;;;10.55;2.92;;;16.90;99.90;;;;;;5047691;28;20077;-70
2023/08/20 00:30:54;;;;;;;10.70;3.20;;;16.90;99.90;;;;;;5046622;28;20068;-71
2023/08/20 00:33:19;;;;;;;11.43;3.08;;;16.90;99.90;;;;;;5045668;28;20472;-70
2023/08/20 00:35:45;;;;;;;10.75;3.38;;;16.90;99.90;;;;;;5045647;28;21529;-69
2023/08/20 00:38:11;;;;;;;12.70;3.20;;;16.90;99.90;;;;;;5045439;28;20041;-70
2023/08/20 00:40:36;;;;;;;9.55;3.22;;;16.90;99.90;;;;;;5046006;28;20053;-70
2023/08/20 00:43:02;;;;;;;10.60;3.10;;;16.80;99.90;;;;;;5047519;28;20069;-70
2023/08/20 00:45:28;;;;;;;7.60;2.80;;;16.80;99.90;;;;;;5045036;28;20049;-70
2023/08/20 00:47:54;;;;;;;10.38;3.00;;;16.80;99.90;;;;;;5047146;28;20044;-70
2023/08/20 00:50:20;;;;;;;12.00;3.13;;;16.80;99.90;;;;;;5046329;28;20040;-70
2023/08/20 00:52:46;;;;;;;13.35;3.30;;;16.80;99.90;;;;;;5045639;28;20418;-69
2023/08/20 00:55:15;;;;;;;8.85;3.38;;;16.70;99.90;;;;;;5028704;28;20107;-69
2023/08/20 00:57:42;;;;;;;8.07;3.30;;;16.70;99.90;;;;;;5046344;28;20048;-69
2023/08/20 01:00:10;;;;;;;12.48;3.63;;;16.70;99.90;;;;;;5029246;28;20044;-69
2023/08/20 01:02:39;;;;;;;11.27;3.33;;;16.70;99.90;;;;;;5045304;28;20072;-69
2023/08/20 01:05:07;;;;;;;7.78;2.90;;;16.60;99.90;;;;;;5047490;28;20395;-68
2023/08/20 01:07:39;;;;;;;8.90;3.47;;;16.60;99.90;;;;;;5045676;28;20044;-69
2023/08/20 01:10:44;;;;;;;8.60;3.58;;;16.60;99.90;;;;;;5027322;28;20466;-69
2023/08/20 01:13:10;;;;;;;9.63;3.30;;;16.60;99.90;;;;;;5027047;28;20052;-73
2023/08/20 01:15:35;;;;;;;10.95;3.88;;;16.60;99.90;;;;;;5045279;28;20055;-72
2023/08/20 01:18:01;;;;;;;9.18;3.20;;;16.60;99.90;;;;;;5045636;28;20153;-72
2023/08/20 01:20:33;;;;;;;11.25;3.50;;;16.50;99.90;;;;;;5045057;28;20040;-73
2023/08/20 01:23:10;;;;;;;;;;;16.50;99.90;;;;;;5046162;28;20049;-73
2023/08/20 01:26:13;;;;;;;9.70;3.22;;;16.50;99.90;;;;;;5044267;28;19932;-73
2023/08/20 01:28:40;;;;;;;15.35;4.53;;;16.40;99.90;;;;;;5044551;28;20379;-72
2023/08/20 01:31:07;;;;;;;11.02;3.83;;;16.50;99.90;;;;;;5024835;28;20102;-73
2023/08/20 01:33:34;;;;;;;11.70;3.55;;;16.40;99.90;;;;;;5026879;28;20041;-72
2023/08/20 01:35:59;;;;;;;11.48;3.33;;;16.40;99.90;;;;;;5029016;28;20590;-72
2023/08/20 01:38:28;;;;;;;11.70;3.38;;;16.40;99.90;;;;;;5045117;28;20048;-72
2023/08/20 01:40:56;;;;;;;12.25;4.05;;;16.40;99.90;;;;;;5045735;28;20045;-72
2023/08/20 01:43:21;;;;;;;11.32;4.18;;;16.30;99.90;;;;;;5028352;28;20068;-72
2023/08/20 01:45:47;;;;;;;9.15;3.42;;;16.30;99.90;;;;;;5046898;28;20068;-73
2023/08/20 01:48:13;;;;;;;10.95;3.40;;;16.30;99.90;;;;;;5028183;28;20033;-73
2023/08/20 01:50:39;;;;;;;10.50;4.35;;;16.30;99.90;;;;;;5045649;28;20048;-74
2023/08/20 01:53:04;;;;;;;11.63;4.43;;;16.20;99.90;;;;;;5045420;28;20040;-73
2023/08/20 01:55:30;;;;;;;12.43;4.00;;;16.20;99.90;;;;;;5046580;28;20755;-73
2023/08/20 01:57:56;;;;;;;11.05;4.22;;;16.20;99.90;;;;;;5027188;28;20060;-73
2023/08/20 02:00:22;;;;;;;11.48;3.97;;;16.20;99.90;;;;;;5045197;28;20747;-72
2023/08/20 02:02:47;;;;;;;13.00;3.78;;;16.20;99.90;;;;;;5028094;28;20088;-73
2023/08/20 02:05:13;;;;;;;12.45;4.07;;;16.20;99.90;;;;;;5046083;28;20037;-73
2023/08/20 02:07:39;;;;;;;12.70;3.90;;;16.20;99.90;;;;;;5027903;28;20490;-73
2023/08/20 02:10:05;;;;;;;9.27;3.35;;;16.20;99.90;;;;;;5045896;28;20037;-72
2023/08/20 02:12:31;;;;;;;8.32;3.20;;;16.10;99.90;;;;;;5028270;28;20132;-73
2023/08/20 02:14:56;;;;;;;9.50;3.45;;;16.10;99.90;;;;;;5044477;28;20128;-74
2023/08/20 02:17:23;;;;;;;11.25;3.92;;;16.20;99.90;;;;;;5045636;28;20494;-73
2023/08/20 02:19:49;;;;;;;13.15;4.47;;;16.10;99.90;;;;;;5044886;28;20375;-74
2023/08/20 02:22:15;;;;;;;9.70;3.75;;;16.10;99.90;;;;;;5041583;28;20052;-73
2023/08/20 02:24:40;;;;;;;13.02;4.40;;;16.10;99.90;;;;;;5043464;28;20036;-74
2023/08/20 02:27:06;;;;;;;16.42;4.68;;;16.10;99.90;;;;;;5043656;28;20041;-73
2023/08/20 02:29:32;;;;;;;14.45;6.18;;;16.10;99.90;;;;;;5027594;28;20041;-73
2023/08/20 02:31:57;;;;;;;12.82;5.38;;;16.00;99.90;;;;;;5043877;28;20814;-73
2023/08/20 02:34:23;;;;;;;14.20;5.00;;;16.00;99.90;;;;;;5043717;28;20107;-72
2023/08/20 02:36:49;;;;;;;17.35;6.22;;;16.00;99.90;;;;;;5043339;28;20082;-73
2023/08/20 02:39:16;;;;;;;14.10;5.82;;;16.00;99.90;;;;;;5045098;28;20041;-74
2023/08/20 02:41:42;;;;;;;13.65;5.70;;;16.00;99.90;;;;;;5044330;28;20045;-74
2023/08/20 02:44:08;;;;;;;13.50;6.13;;;16.00;99.90;;;;;;5043924;28;20067;-74
2023/08/20 02:46:34;;;;;;;16.13;6.93;;;16.00;99.90;;;;;;5043659;28;20045;-74
2023/08/20 02:48:59;;;;;;;15.15;6.00;;;16.00;99.90;;;;;;5026946;28;20049;-74
2023/08/20 02:51:25;;;;;;;14.65;5.32;;;15.90;99.90;;;;;;5045610;28;20045;-73
2023/08/20 02:53:51;;;;;;;10.82;5.45;;;15.90;99.90;;;;;;5045044;28;20394;-75
2023/08/20 02:56:17;;;;;;;14.68;5.88;;;15.90;99.90;;;;;;5045352;28;20036;-74
2023/08/20 02:58:42;;;;;;;15.15;7.03;;;15.90;99.90;;;;;;5043538;28;20041;-72
2023/08/20 03:01:18;;;;;;;15.55;6.88;;;15.90;99.90;;;;;;5044934;28;20037;-74
2023/08/20 03:03:43;;;;;;;13.30;6.47;;;15.90;99.90;;;;;;5044091;28;20389;-74
2023/08/20 03:06:09;;;;;;;15.18;6.63;;;15.90;99.90;;;;;;5026622;28;20074;-75
2023/08/20 03:08:35;;;;;;;14.50;6.68;;;15.90;99.90;;;;;;5041048;28;20041;-75
2023/08/20 03:11:01;;;;;;;12.90;6.60;;;15.90;99.90;;;;;;5045500;28;20076;-74
2023/08/20 03:13:26;;;;;;;16.05;6.97;;;15.90;99.90;;;;;;5026647;28;20048;-72
2023/08/20 03:15:52;;;;;;;13.93;6.05;;;15.90;99.90;;;;;;5044152;28;20037;-73
2023/08/20 03:18:17;;;;;;;16.48;6.70;;;15.90;99.90;;;;;;5044977;28;20068;-74
2023/08/20 03:20:43;;;;;;;14.65;6.90;;;15.90;99.90;;;;;;5047610;28;20114;-74
2023/08/20 03:23:09;;;;;;;14.95;7.50;;;15.80;99.90;;;;;;5047645;28;20508;-74
2023/08/20 03:25:34;;;;;;;16.42;7.50;;;15.80;99.90;;;;;;5047669;28;20045;-73
2023/08/20 03:28:00;;;;;;;12.70;6.28;;;15.80;99.90;;;;;;5031213;28;20046;-74
2023/08/20 03:30:27;;;;;;;13.80;6.07;;;15.80;99.90;;;;;;5049499;28;20044;-74
2023/08/20 03:32:53;;;;;;;12.00;5.70;;;15.80;99.90;;;;;;5047892;28;20048;-74
2023/08/20 03:35:18;;;;;;;15.60;6.43;;;15.80;99.90;;;;;;5047546;28;20066;-74
2023/08/20 03:37:44;;;;;;;15.43;6.07;;;15.80;99.90;;;;;;5048101;28;20052;-74
2023/08/20 03:40:10;;;;;;;11.40;5.45;;;15.80;99.90;;;;;;5047716;28;20056;-74
2023/08/20 03:42:36;;;;;;;13.80;6.55;;;15.80;99.90;;;;;;5048913;28;20048;-74
2023/08/20 03:45:01;;;;;;;11.32;6.20;;;15.80;99.90;;;;;;5045902;28;20058;-73
2023/08/20 03:47:27;;;;;;;12.57;5.53;;;15.80;99.90;;;;;;5049111;28;20052;-73
2023/08/20 03:49:53;;;;;;;14.02;6.65;;;15.70;99.90;;;;;;5030511;28;20033;-73
2023/08/20 03:52:18;;;;;;;16.23;6.93;;;15.60;99.90;;;;;;5031095;28;20033;-74
2023/08/20 03:54:44;;;;;;;11.80;6.80;;;15.70;99.90;;;;;;5048709;28;20097;-70
2023/08/20 03:57:10;;;;;;;14.18;6.18;;;15.70;99.90;;;;;;5047075;28;20063;-70
2023/08/20 03:59:35;;;;;;;12.38;5.78;;;15.70;99.90;;;;;;5047335;28;20045;-70
2023/08/20 04:02:02;;;;;;;13.48;5.80;;;15.60;99.90;;;;;;5048548;28;20131;-71
2023/08/20 04:04:28;;;;;;;14.18;5.82;;;15.60;99.90;;;;;;5045708;28;20413;-71
2023/08/20 04:06:54;;;;;;;13.00;6.43;;;15.60;99.90;;;;;;5047066;28;20055;-71
2023/08/20 04:09:19;;;;;;;11.70;5.93;;;15.60;99.90;;;;;;5047167;28;20097;-70
2023/08/20 04:11:45;;;;;;;17.90;6.85;;;15.60;99.90;;;;;;5046778;28;20480;-70
2023/08/20 04:14:11;;;;;;;11.63;5.82;;;15.60;99.90;;;;;;5047531;28;20045;-71
2023/08/20 04:16:36;;;;;;;13.52;6.15;;;15.60;99.90;;;;;;5046912;28;20501;-70
2023/08/20 04:19:03;;;;;;;12.02;5.78;;;15.60;99.90;;;;;;5047157;28;20044;-71
2023/08/20 04:21:29;;;;;;;14.30;6.57;;;15.60;99.90;;;;;;5030983;28;20040;-71
2023/08/20 04:23:57;;;;;;;16.30;7.00;;;15.60;99.90;;;;;;5030353;28;20501;-71
2023/08/20 04:26:29;;;;;;;11.30;5.75;;;15.60;99.90;;;;;;5028847;28;20575;-73
2023/08/20 04:28:54;;;;;;;14.05;6.78;;;15.60;99.90;;;;;;5031458;28;20106;-73
2023/08/20 04:31:20;;;;;;;14.98;6.40;;;15.50;99.90;;;;;;5046984;28;20061;-73
2023/08/20 04:33:46;;;;;;;12.68;6.47;;;15.50;99.90;;;;;;5046271;28;20589;-73
2023/08/20 04:36:12;;;;;;;14.63;5.53;;;15.50;99.90;;;;;;5046833;28;20052;-73
2023/08/20 04:38:39;;;;;;;15.85;5.80;;;15.50;99.90;;;;;;5046166;28;20042;-73
2023/08/20 04:41:04;;;;;;;14.35;6.50;;;15.50;99.90;;;;;;5047449;28;20049;-74
2023/08/20 04:43:30;;;;;;;12.57;6.30;;;15.60;99.90;;;;;;5047559;28;20607;-75
2023/08/20 04:45:56;;;;;;;13.23;6.43;;;15.50;99.90;;;;;;5047385;28;20037;-75
2023/08/20 04:48:21;;;;;;;12.80;5.70;;;15.50;99.90;;;;;;5045866;28;20052;-74
2023/08/20 04:50:47;;;;;;;10.98;5.90;;;15.50;99.90;;;;;;5046369;28;20573;-75
2023/08/20 04:53:13;;;;;;;12.80;6.32;;;15.50;99.90;;;;;;5046168;28;20503;-73
2023/08/20 04:55:38;;;;;;;16.35;6.82;;;15.50;99.90;;;;;;5047499;28;20075;-73
2023/08/20 04:58:04;;;;;;;15.40;6.20;;;15.50;99.90;;;;;;5046079;28;20153;-73
2023/08/20 05:00:30;;;;;;;15.13;6.63;;;15.50;99.90;;;;;;5045700;28;20826;-73
2023/08/20 05:02:56;;;;;;;13.27;6.00;;;15.50;99.90;;;;;;5045615;28;20041;-74
2023/08/20 05:05:22;;;;;;;18.40;7.05;;;15.50;99.90;;;;;;5043264;28;20056;-74
2023/08/20 05:07:47;;;;;;;15.20;6.60;;;15.50;99.90;;;;;;5045751;28;20041;-73
2023/08/20 05:10:13;;;;;;;17.17;6.38;;;15.50;99.90;;;;;;5045457;28;20036;-74
2023/08/20 05:12:39;;;;;;;13.48;6.15;;;15.50;99.90;;;;;;5046726;28;20037;-74
2023/08/20 05:15:05;;;;;;;15.13;5.68;;;15.50;99.90;;;;;;5046911;28;20121;-74
2023/08/20 05:17:30;;;;;;;17.75;7.10;;;15.60;99.90;;;;;;5029049;28;20064;-75
2023/08/20 05:19:56;;;;;;;15.30;6.65;;;15.60;99.90;;;;;;5028724;28;20410;-73
2023/08/20 05:22:22;;;;;;;23.58;7.05;;;15.60;99.90;;;;;;5045472;28;20041;-73
2023/08/20 05:24:48;;;;;;;12.07;5.85;;;15.60;99.90;;;;;;5029129;28;20049;-73
2023/08/20 05:27:17;;;;;;;15.45;6.13;;;15.60;99.90;;;;;;5047053;28;20116;-73
2023/08/20 05:29:43;;;;;;;16.30;6.65;;;15.70;99.90;;;;;;5045906;28;20045;-73
2023/08/20 05:32:09;;;;;;;12.25;6.43;;;15.70;99.90;;;;;;5043935;28;20048;-73
2023/08/20 05:34:35;;;;;;;11.90;5.55;;;15.70;99.90;;;;;;5046432;28;20044;-73
2023/08/20 05:37:01;;;;;;;12.15;6.65;;;15.80;99.90;;;;;;5043533;28;20049;-74
2023/08/20 05:39:27;;;;;;;17.52;6.65;;;15.80;99.90;;;;;;5024933;28;20044;-73
2023/08/20 05:41:56;;;;;;;14.90;6.25;;;15.80;99.90;;;;;;5044660;28;20049;-74
2023/08/20 05:44:22;;;;;;;16.35;6.05;;;15.80;99.90;;;;;;5044793;28;20098;-74
2023/08/20 05:46:48;;;;;;;15.45;6.63;;;15.90;99.90;;;;;;5045953;28;20100;-74
2023/08/20 05:49:15;;;;;;;16.95;6.53;;;15.90;99.90;;;;;;5044993;28;20457;-74
2023/08/20 05:51:42;;;;;;;12.95;6.03;;;15.90;99.90;;;;;;5045541;28;20053;-73
2023/08/20 05:54:08;;;;;;;11.77;6.03;;;15.90;99.90;;;;;;5045324;28;20131;-72
2023/08/20 05:56:34;;;;;;;16.35;6.53;;;15.90;99.90;;;;;;5044539;28;20124;-73
2023/08/20 05:58:59;;;;;;;13.45;6.03;;;16.00;99.90;;;;;;5044855;28;20056;-72
2023/08/20 06:01:28;;;;;;;13.05;5.95;;;16.00;99.90;;;;;;5044492;28;20680;-73
2023/08/20 06:03:54;;;;;;;14.02;5.95;;;16.00;99.90;;;;;;5043707;28;20731;-72
2023/08/20 06:06:20;;;;;;;12.43;5.90;;;16.10;99.90;;;;;;5043966;28;20053;-73
2023/08/20 06:08:46;;;;;;;11.38;5.75;;;16.00;99.90;;;;;;5043920;28;20043;-73
2023/08/20 06:11:12;;;;;;;15.80;6.57;;;16.10;99.90;;;;;;5028428;28;20421;-74
2023/08/20 06:13:37;;;;;;;16.85;6.15;;;16.10;99.90;;;;;;5028149;28;20037;-72
2023/08/20 06:16:03;;;;;;;18.50;6.97;;;16.20;99.90;;;;;;5043702;28;20763;-72
2023/08/20 06:18:29;;;;;;;16.10;6.63;;;16.20;99.90;;;;;;5044653;28;20132;-73
2023/08/20 06:20:55;;;;;;;13.70;6.30;;;16.20;99.90;;;;;;5025854;28;20052;-73
2023/08/20 06:23:20;;;;;;;11.18;6.25;;;16.30;99.90;;;;;;5034281;28;20072;-74
2023/08/20 06:25:46;;;;;;;15.88;6.30;;;16.30;99.90;;;;;;5033854;28;20045;-74
2023/08/20 06:28:12;;;;;;;15.85;5.70;;;16.30;99.90;;;;;;5033480;28;20041;-74
2023/08/20 06:30:37;;;;;;;18.08;6.70;;;16.40;99.90;;;;;;5028719;28;20037;-74
2023/08/20 06:33:03;;;;;;;17.88;7.43;;;16.40;99.90;;;;;;5022536;28;20041;-74
2023/08/20 06:35:29;;;;;;;15.57;6.68;;;16.50;99.90;;;;;;5027847;28;20092;-74
2023/08/20 06:37:57;;;;;;;17.75;7.15;;;16.50;99.90;;;;;;5043778;28;20052;-73
2023/08/20 06:40:23;;;;;;;15.13;6.43;;;16.60;99.90;;;;;;5036994;28;20063;-73
2023/08/20 06:42:49;;;;;;;18.67;6.68;;;16.60;99.90;;;;;;5042137;28;20041;-72
2023/08/20 06:45:15;;;;;;;18.00;5.78;;;16.70;99.90;;;;;;5042210;28;20527;-73
2023/08/20 06:47:40;;;;;;;19.05;6.57;;;16.70;99.90;;;;;;5024356;28;20055;-73
2023/08/20 06:50:06;;;;;;;16.33;5.60;;;16.80;99.90;;;;;;5043748;28;20095;-73
2023/08/20 06:52:32;;;;;;;11.85;5.72;;;16.70;99.90;;;;;;5042889;28;20047;-73
2023/08/20 06:54:58;;;;;;;15.45;6.03;;;16.90;99.90;;;;;;5020118;28;20049;-73
2023/08/20 06:57:23;;;;;;;15.27;6.18;;;16.90;99.90;;;;;;5043690;28;20575;-74
2023/08/20 06:59:49;;;;;;;16.35;5.75;;;17.00;99.90;;;;;;5046302;28;20520;-73
2023/08/20 07:02:15;;;;;;;17.17;5.80;;;17.00;99.90;;;;;;5043479;28;20045;-74
2023/08/20 07:04:40;;;;;;;18.63;6.00;;;17.10;99.90;;;;;;5041310;28;20033;-73
2023/08/20 07:07:07;;;;;;;26.70;6.88;;;17.20;99.90;;;;;;5039887;28;20415;-74
2023/08/20 07:09:33;;;;;;;27.27;7.20;;;17.30;99.90;;;;;;5039281;28;20043;-73
2023/08/20 07:11:59;;;;;;;17.85;6.00;;;17.30;99.90;;;;;;5043092;28;22711;-72
2023/08/20 07:14:25;;;;;;;14.50;5.00;;;17.30;99.90;;;;;;5042936;28;20048;-73
2023/08/20 07:16:51;;;;;;;17.25;5.25;;;17.40;99.90;;;;;;5045718;28;20087;-73
2023/08/20 07:19:17;;;;;;;16.63;5.00;;;17.40;99.90;;;;;;5043876;28;20045;-73
2023/08/20 07:21:42;;;;;;;17.23;4.57;;;17.50;99.90;;;;;;5039883;28;20640;-73
2023/08/20 07:24:08;;;;;;;18.23;5.20;;;17.60;99.90;;;;;;5037760;28;20139;-74
2023/08/20 07:26:34;;;;;;;15.18;5.20;;;17.70;99.90;;;;;;5038259;28;20136;-73
2023/08/20 07:29:00;;;;;;;17.58;5.05;;;17.80;99.90;;;;;;5037434;28;20095;-73
2023/08/20 07:31:27;;;;;;;20.88;5.00;;;18.00;99.90;;;;;;5037153;28;20048;-74
2023/08/20 07:33:55;;;;;;;17.17;4.47;;;18.10;99.90;;;;;;5035677;28;20049;-73
2023/08/20 07:36:21;;;;;;;13.35;4.32;;;18.30;99.90;;;;;;5038128;28;20059;-75
2023/08/20 07:38:48;;;;;;;14.18;4.68;;;18.40;99.90;;;;;;5075514;28;20041;-74
2023/08/20 07:41:14;;;;;;;14.77;4.22;;;18.60;99.90;;;;;;5039503;28;20037;-74
2023/08/20 07:43:40;;;;;;;17.95;3.63;;;18.70;99.90;;;;;;5015180;28;20452;-74
2023/08/20 07:46:07;;;;;;;16.15;4.00;;;18.90;99.90;;;;;;5040068;28;20493;-73
2023/08/20 07:48:34;;;;;;;15.07;3.78;;;19.00;99.90;;;;;;5037774;28;20110;-74
2023/08/20 07:51:00;;;;;;;17.90;3.85;;;19.20;99.90;;;;;;5025058;28;20060;-74
2023/08/20 07:53:26;;;;;;;20.35;4.53;;;19.30;99.90;;;;;;5033983;28;20040;-74
2023/08/20 07:55:52;;;;;;;16.55;3.50;;;19.50;99.90;;;;;;5037012;28;20724;-74
2023/08/20 07:58:18;;;;;;;15.68;3.60;;;19.60;99.90;;;;;;5039056;28;20048;-74
2023/08/20 08:00:44;;;;;;;17.48;2.88;;;19.80;99.90;;;;;;5032058;28;20088;-75
2023/08/20 08:03:09;;;;;;;18.92;3.55;;;19.90;99.90;;;;;;5037295;28;20045;-74
2023/08/20 08:05:36;;;;;;;14.43;3.25;;;20.10;99.90;;;;;;5038042;28;20104;-74
2023/08/20 08:08:02;;;;;;;13.80;2.80;;;20.20;99.90;;;;;;5039224;28;20733;-74
2023/08/20 08:10:28;;;;;;;13.90;3.70;;;20.40;99.90;;;;;;5043315;28;20075;-74
2023/08/20 08:12:54;;;;;;;15.55;3.45;;;20.50;99.90;;;;;;5028452;28;20449;-74
2023/08/20 08:15:20;;;;;;;12.90;2.58;;;20.70;99.90;;;;;;5042719;28;20045;-73
2023/08/20 08:17:46;;;;;;;14.40;2.78;;;20.70;99.90;;;;;;5047099;28;22498;-74
2023/08/20 08:20:12;;;;;;;16.42;2.88;;;20.80;99.90;;;;;;5046533;28;20092;-75
2023/08/20 08:22:39;;;;;;;12.73;3.30;;;20.90;99.90;;;;;;5040745;28;20120;-74
2023/08/20 08:25:05;;;;;;;13.63;2.70;;;21.00;99.90;;;;;;5039195;28;20045;-75
2023/08/20 08:27:31;;;;;;;9.77;2.10;;;21.10;99.90;;;;;;5043830;28;20063;-74
2023/08/20 08:29:57;;;;;;;15.95;3.03;;;21.20;99.90;;;;;;5036822;28;20245;-75
2023/08/20 08:32:22;;;;;;;9.88;2.30;;;21.20;99.90;;;;;;5022544;28;20068;-75
2023/08/20 08:34:48;;;;;;;13.57;2.95;;;21.40;99.90;;;;;;5058511;28;20084;-75
2023/08/20 08:37:15;;;;;;;16.23;2.70;;;21.50;99.90;;;;;;5042766;28;20032;-73
2023/08/20 08:39:41;;;;;;;14.55;2.33;;;21.60;99.90;;;;;;5023905;28;20051;-73
2023/08/20 08:42:10;;;;;;;11.88;2.30;;;21.60;99.90;;;;;;5039877;28;20045;-74
2023/08/20 08:44:37;;;;;;;10.30;1.83;;;21.70;99.90;;;;;;5042708;28;20051;-74
2023/08/20 08:47:05;;;;;;;14.93;3.53;;;21.80;99.90;;;;;;5037066;28;20056;-73
2023/08/20 08:49:34;;;;;;;11.90;2.15;;;21.90;99.90;;;;;;5039943;28;20130;-73
2023/08/20 08:52:03;;;;;;;11.50;2.13;;;21.90;99.90;;;;;;5042462;28;20052;-74
2023/08/20 08:54:29;;;;;;;11.05;2.33;;;22.00;99.90;;;;;;5034346;28;20410;-74
2023/08/20 08:56:55;;;;;;;13.48;2.80;;;22.10;99.90;;;;;;5017734;28;20538;-73
2023/08/20 08:59:21;;;;;;;11.68;1.75;;;22.20;99.90;;;;;;5037749;28;20037;-73
2023/08/20 09:01:48;;;;;;;10.32;1.90;;;22.30;99.90;;;;;;5030686;28;20053;-74
2023/08/20 09:04:14;;;;;;;11.30;2.40;;;22.40;99.90;;;;;;5033653;28;20103;-73
2023/08/20 09:06:47;;;;;;;12.27;2.00;;;22.40;99.90;;;;;;5031663;28;20121;-74
2023/08/20 09:09:13;;;;;;;11.38;2.20;;;22.50;99.90;;;;;;5016443;28;20041;-75
2023/08/20 09:11:39;;;;;;;15.38;3.15;;;22.50;99.90;;;;;;5032397;28;20051;-76
2023/08/20 09:14:05;;;;;;;9.77;1.80;;;22.60;99.90;;;;;;5031247;28;21347;-76
2023/08/20 09:16:31;;;;;;;10.45;2.28;;;22.70;99.90;;;;;;5030794;28;20102;-75
2023/08/20 09:19:00;;;;;;;8.60;1.98;;;22.70;99.90;;;;;;5037823;28;20488;-75
2023/08/20 09:21:29;;;;;;;10.50;1.98;;;22.70;99.90;;;;;;5024564;28;20044;-74
2023/08/20 09:23:57;;;;;;;11.52;2.22;;;22.60;99.90;;;;;;5034966;28;20395;-74
2023/08/20 09:26:23;;;;;;;15.13;3.42;;;22.60;99.90;;;;;;5019956;28;20032;-75
2023/08/20 09:28:49;;;;;;;16.40;2.00;;;22.60;99.90;;;;;;5034524;28;20611;-74
2023/08/20 09:31:15;;;;;;;9.60;2.13;;;22.60;99.90;;;;;;5039260;28;20056;-74
2023/08/20 09:33:54;;;;;;;9.30;1.98;;;22.60;99.90;;;;;;5044211;28;20051;-75
2023/08/20 09:36:30;;;;;;;12.15;2.35;;;22.70;99.90;;;;;;5076521;28;20123;-74
2023/08/20 09:38:56;;;;;;;10.82;2.13;;;22.70;99.90;;;;;;5045538;28;20482;-74
2023/08/20 09:41:23;;;;;;;9.07;1.80;;;22.80;99.90;;;;;;5027175;28;20076;-74
2023/08/20 09:43:58;;;;;;;10.40;1.75;;;22.90;99.90;;;;;;5042446;28;20049;-75
2023/08/20 09:46:27;;;;;;;6.82;1.60;;;22.90;99.90;;;;;;5042559;28;20119;-75
2023/08/20 09:48:57;;;;;;;10.85;2.08;;;22.90;99.90;;;;;;5044470;28;20047;-75
2023/08/20 09:51:28;;;;;;;;;;;22.90;99.90;;;;;;5042940;28;20073;-75
2023/08/20 09:54:21;;;;;;;14.35;2.03;;;22.90;99.90;;;;;;5026451;28;20472;-75
2023/08/20 09:56:53;;;;;;;11.63;1.90;;;23.00;99.90;;;;;;5043071;28;20044;-76
2023/08/20 09:59:19;;;;;;;9.75;1.70;;;23.00;99.90;;;;;;5044407;28;20620;-74
2023/08/20 10:01:47;;;;;;;10.57;2.00;;;23.10;99.90;;;;;;5043889;28;20087;-74
2023/08/20 10:04:15;;;;;;;11.10;2.38;;;23.20;99.90;;;;;;5056415;28;20206;-70
2023/08/20 10:06:42;;;;;;;11.68;2.25;;;23.20;99.90;;;;;;5042265;28;20401;-70
2023/08/20 10:09:08;;;;;;;10.25;2.20;;;23.30;99.90;;;;;;5044396;28;20049;-70
2023/08/20 10:11:34;;;;;;;9.60;2.28;;;23.40;99.90;;;;;;5042059;28;20045;-69
2023/08/20 10:14:00;;;;;;;13.10;2.28;;;23.40;99.90;;;;;;5044393;28;20421;-69
2023/08/20 10:16:27;;;;;;;9.50;1.70;;;23.50;99.90;;;;;;5046181;28;20095;-71
2023/08/20 10:18:55;;;;;;;8.05;1.48;;;23.50;99.90;;;;;;5044563;28;20037;-70
2023/08/20 10:21:24;;;;;;;9.77;1.50;;;23.50;99.90;;;;;;5045062;28;20516;-71
2023/08/20 10:23:51;;;;;;;11.35;2.08;;;23.50;99.90;;;;;;5042428;28;20061;-70
2023/08/20 10:26:21;;;;;;;7.22;1.50;;;23.50;99.90;;;;;;5045964;28;20193;-70
2023/08/20 10:28:47;;;;;;;7.72;1.40;;;23.50;99.90;;;;;;5026633;28;20052;-70
2023/08/20 10:31:16;;;;;;;8.75;1.50;;;23.50;99.90;;;;;;5044816;28;20048;-71
2023/08/20 10:33:47;;;;;;;8.20;1.88;;;23.60;99.90;;;;;;5042765;28;20045;-70
2023/08/20 10:36:22;;;;;;;8.30;1.50;;;23.60;99.90;;;;;;5045737;28;20084;-70
2023/08/20 10:38:49;;;;;;;9.80;1.77;;;23.60;99.90;;;;;;5075465;28;20072;-71
2023/08/20 10:41:18;;;;;;;8.85;1.95;;;23.70;99.90;;;;;;5043951;28;20155;-71
2023/08/20 10:43:51;;;;;;;9.95;1.70;;;23.80;99.90;;;;;;5044110;28;20524;-71
2023/08/20 10:46:22;;;;;;;7.78;1.48;;;23.80;99.90;;;;;;5042216;28;20049;-71
2023/08/20 10:48:54;;;;;;;8.13;1.52;;;23.80;99.90;;;;;;5044069;28;20143;-71
2023/08/20 10:51:33;;;;;;;7.63;1.58;;;23.80;99.90;;;;;;5045631;28;20094;-71
2023/08/20 10:54:03;;;;;;;7.80;1.48;;;23.70;99.90;;;;;;5044073;28;20052;-71
2023/08/20 10:56:40;;;;;;;7.72;1.30;;;23.70;99.90;;;;;;5044826;28;20104;-71
2023/08/20 10:59:12;;;;;;;8.77;1.80;;;23.70;99.90;;;;;;5025740;28;20056;-72
2023/08/20 11:01:38;;;;;;;10.20;1.85;;;23.80;99.90;;;;;;5043239;28;20095;-71
2023/08/20 11:04:07;;;;;;;8.80;1.63;;;23.80;99.90;;;;;;5045120;28;20045;-70
2023/08/20 11:06:33;;;;;;;8.57;1.40;;;23.80;99.90;;;;;;5044198;28;20094;-70
2023/08/20 11:08:59;;;;;;;10.23;2.08;;;23.90;99.90;;;;;;5043255;28;20049;-70
2023/08/20 11:11:25;;;;;;;8.30;1.70;;;24.00;99.90;;;;;;5043873;28;20113;-71
2023/08/20 11:13:51;;;;;;;7.15;1.73;;;24.00;99.90;;;;;;5073160;28;20049;-71
2023/08/20 11:16:19;;;;;;;9.05;1.70;;;24.10;99.90;;;;;;5043978;28;20040;-71
2023/08/20 11:18:45;;;;;;;9.20;1.77;;;24.10;99.90;;;;;;5044446;28;20414;-71
2023/08/20 11:21:12;;;;;;;9.50;1.75;;;24.20;99.90;;;;;;5044138;28;20051;-71
2023/08/20 11:23:41;;;;;;;8.30;1.70;;;24.10;99.90;;;;;;5043686;28;20077;-71
2023/08/20 11:26:08;;;;;;;6.85;1.70;;;24.10;99.90;;;;;;5044077;28;20425;-71
2023/08/20 11:28:33;;;;;;;9.02;1.75;;;24.10;99.90;;;;;;5043186;28;20033;-71
2023/08/20 11:31:01;;;;;;;8.45;1.42;;;24.00;99.90;;;;;;5044806;28;20479;-70
2023/08/20 11:33:28;;;;;;;7.90;1.55;;;24.10;99.90;;;;;;5027134;28;20040;-71
2023/08/20 11:35:54;;;;;;;7.55;1.58;;;24.10;99.90;;;;;;5043347;28;20557;-71
2023/08/20 11:38:22;;;;;;;8.18;1.70;;;24.10;99.90;;;;;;5044995;28;20044;-71
2023/08/20 11:40:49;;;;;;;9.88;1.60;;;24.10;99.90;;;;;;5047056;28;20053;-71
2023/08/20 11:43:14;;;;;;;6.40;1.45;;;24.00;99.90;;;;;;5047214;28;20033;-71
2023/08/20 11:45:48;;;;;;;9.35;1.75;;;24.10;99.90;;;;;;5047510;28;20037;-71
2023/08/20 11:48:15;;;;;;;9.75;1.65;;;24.10;99.90;;;;;;5048604;28;20045;-71
2023/08/20 11:50:42;;;;;;;9.27;1.77;;;24.00;99.90;;;;;;5047634;28;20048;-71
2023/08/20 11:53:09;;;;;;;7.32;1.42;;;24.10;99.90;;;;;;5047392;28;20041;-71
2023/08/20 11:55:35;;;;;;;9.65;1.73;;;24.10;99.90;;;;;;5047253;28;20075;-71
2023/08/20 11:58:01;;;;;;;8.48;1.83;;;24.20;99.90;;;;;;5047417;28;20178;-71
2023/08/20 12:00:29;;;;;;;10.20;2.35;;;24.20;99.90;;;;;;5048537;28;20040;-71
2023/08/20 12:02:57;;;;;;;6.55;1.30;;;24.40;99.90;;;;;;5031297;28;20045;-72
2023/08/20 12:05:30;;;;;;;9.70;1.60;;;24.40;99.90;;;;;;5031454;28;20120;-71
2023/08/20 12:08:03;;;;;;;9.30;1.60;;;24.40;99.90;;;;;;5048787;28;20033;-71
2023/08/20 12:10:31;;;;;;;6.25;1.67;;;24.40;99.90;;;;;;5029912;28;20469;-71
2023/08/20 12:12:57;;;;;;;5.22;1.33;;;24.40;99.90;;;;;;5047171;28;20053;-71
2023/08/20 12:15:24;;;;;;;8.98;1.85;;;24.50;99.90;;;;;;5058480;28;20052;-71
2023/08/20 12:17:56;;;;;;;4.43;1.23;;;24.50;99.90;;;;;;5048585;28;20041;-72
2023/08/20 12:20:23;;;;;;;8.80;1.50;;;24.60;99.90;;;;;;5045905;28;20044;-71
2023/08/20 12:22:48;;;;;;;11.38;1.73;;;24.60;99.90;;;;;;5048207;28;20113;-71
2023/08/20 12:25:14;;;;;;;7.95;1.30;;;24.60;99.90;;;;;;5048475;28;20482;-72
2023/08/20 12:27:41;;;;;;;10.57;1.85;;;24.60;99.90;;;;;;5047399;28;20051;-71
2023/08/20 12:30:07;;;;;;;8.48;1.80;;;24.60;99.90;;;;;;5047098;28;20853;-72
2023/08/20 12:32:33;;;;;;;6.78;1.20;;;24.70;99.90;;;;;;5048097;28;20051;-71
2023/08/20 12:34:59;;;;;;;9.15;1.77;;;24.70;99.90;;;;;;5030597;28;20045;-71
2023/08/20 12:37:24;;;;;;;10.52;2.17;;;24.60;99.90;;;;;;5047672;28;20036;-71
2023/08/20 12:39:50;;;;;;;7.88;1.40;;;24.60;99.90;;;;;;5046430;28;20127;-71